Mansfield Hollow, Connecticut
Current Conditions -  °F | °C
As of 7:27 AM on Monday 24 Nov 2014 (Local Time) from KIJD Reporting Station
Moderate Rain Moderate Rain  
Wind Chill: 16°   Ceiling: 1000
Heat Index: 16°   Visibility: 2.5mi
Dew Point: 14°   Wind: 16mph
Humidity: 90%   Direction: 180°S
Pressure: 29.76"   Gusts: 31mph
Location:  41.7742°N, 72.196°W
Report Text: KIJD 241227Z AUTO 18014G27KT 2 1/2SM RA BR BKN010 OVC015 16/14 A2976 RMK AO2 PK WND 17029/1215 P0010 T01610144
Loading
Personal Weather Stations






























Interactive Weather Map New forecast layout! Learn more

10-Day Weather Forecast

Advertisements
Track Severe Weather on mobile